createdAt,value
2022-09-16T15:57:06.403Z,32
2022-09-16T15:58:10.353Z,35
2022-09-16T15:59:13.489Z,35
2022-09-16T16:01:19.916Z,39
2022-09-16T16:02:23.757Z,37
2022-09-16T16:03:26.779Z,37
2022-09-16T16:04:29.295Z,36
2022-09-16T16:06:34.922Z,32
2022-09-16T16:07:37.712Z,29
2022-09-16T16:09:43.626Z,26
2022-09-16T16:11:49.945Z,23
2022-09-16T16:12:54.021Z,23
2022-09-16T16:14:04.525Z,19
2022-09-16T16:15:08.196Z,17
2022-09-16T16:17:17.041Z,22
2022-09-16T16:19:23.112Z,17
2022-09-16T16:20:26.839Z,16
2022-09-16T16:22:34.690Z,14
2022-09-16T16:24:41.120Z,15
2022-09-16T16:26:46.358Z,14
2022-09-16T16:27:49.341Z,17
2022-09-16T16:29:57.703Z,14
2022-09-16T16:32:04.175Z,11
2022-09-16T16:34:10.705Z,9
2022-09-16T16:35:13.413Z,10
2022-09-16T16:36:16.564Z,10
2022-09-16T16:37:49.424Z,11
2022-09-16T16:39:56.976Z,11
2022-09-16T16:42:03.344Z,9
2022-09-16T16:44:11.020Z,8
2022-09-16T16:45:15.209Z,8
2022-09-16T16:47:21.035Z,7
2022-09-16T16:49:27.671Z,5
2022-09-16T16:51:35.275Z,4
2022-09-16T16:52:38.266Z,3
2022-09-16T16:54:43.666Z,2
2022-09-16T16:56:49.373Z,3
2022-09-16T16:58:55.442Z,3
2022-09-16T17:00:00.212Z,2
2022-09-16T17:02:07.014Z,2
2022-09-16T17:04:14.344Z,2
2022-09-16T17:06:21.489Z,2
2022-09-16T17:07:30.767Z,2
2022-09-16T17:08:34.950Z,2
2022-09-16T17:09:38.480Z,2
2022-09-16T17:11:45.132Z,2
2022-09-16T17:13:51.556Z,2
2022-09-16T17:15:59.070Z,1
2022-09-16T17:17:03.349Z,1
2022-09-16T17:19:08.582Z,1
2022-09-16T17:21:15.137Z,0
2022-09-16T17:23:20.269Z,0
2022-09-16T17:24:22.796Z,0
2022-09-16T17:26:29.121Z,0
2022-09-16T17:28:35.383Z,0
2022-09-16T17:30:41.922Z,0
2022-09-16T17:31:45.655Z,0
2022-09-16T17:33:51.720Z,0
2022-09-16T17:35:58.005Z,0
2022-09-16T17:38:08.850Z,0
2022-09-16T17:39:11.690Z,0
2022-09-16T17:41:17.392Z,0
2022-09-16T17:43:23.257Z,0
2022-09-16T17:45:29.352Z,0
2022-09-16T17:46:33.274Z,0
2022-09-16T17:48:41.459Z,0
2022-09-16T17:50:46.925Z,0
2022-09-16T17:52:52.430Z,0
2022-09-16T17:53:55.495Z,0
2022-09-16T17:56:00.805Z,0
2022-09-16T17:58:06.866Z,0
2022-09-16T18:00:12.566Z,0
2022-09-16T18:01:15.720Z,0
2022-09-16T18:03:23.361Z,0
2022-09-16T18:05:32.652Z,0
2022-09-16T18:07:38.327Z,0
2022-09-16T18:08:41.114Z,0
2022-09-16T18:10:47.322Z,0
2022-09-16T18:12:54.160Z,0
2022-09-16T18:13:57.186Z,0
2022-09-16T18:15:00.887Z,0
2022-09-16T18:16:03.746Z,0
2022-09-16T18:18:10.722Z,0
2022-09-16T18:19:14.787Z,0
2022-09-16T18:20:18.998Z,0
2022-09-16T18:21:21.782Z,0
2022-09-16T18:23:28.103Z,0
2022-09-16T18:25:34.466Z,0
2022-09-16T18:26:37.830Z,0
2022-09-16T18:27:45.796Z,0
2022-09-16T18:29:13.916Z,0
2022-09-16T18:31:20.641Z,0
2022-09-16T18:33:26.947Z,0
2022-09-16T18:34:36.347Z,0
2022-09-16T18:35:39.758Z,0
2022-09-16T18:36:42.932Z,0
2022-09-16T18:37:45.635Z,0
2022-09-16T18:38:48.668Z,0
2022-09-16T18:40:55.327Z,0
2022-09-16T18:43:01.091Z,0
2022-09-16T18:44:04.280Z,0
2022-09-16T18:46:09.963Z,0
2022-09-16T18:48:15.575Z,0
2022-09-16T18:49:19.018Z,0
2022-09-16T18:50:23.182Z,0
2022-09-16T18:51:27.403Z,0
2022-09-16T18:53:33.488Z,0
2022-09-16T18:55:39.663Z,0
2022-09-16T18:56:42.816Z,0
2022-09-16T18:59:25.414Z,0
2022-09-16T19:00:29.651Z,0
2022-09-16T19:01:33.537Z,0
2022-09-16T19:03:39.509Z,0
2022-09-16T19:04:42.580Z,0
2022-09-16T19:05:46.949Z,0
2022-09-16T19:06:50.039Z,0
2022-09-16T19:08:56.707Z,0
2022-09-16T19:11:02.850Z,0
2022-09-16T19:12:05.372Z,0
2022-09-16T19:14:10.592Z,0
2022-09-16T19:16:15.471Z,0
2022-09-16T19:18:22.204Z,0
2022-09-16T19:19:24.916Z,0
2022-09-16T19:21:32.136Z,0
2022-09-16T19:23:39.742Z,0
2022-09-16T19:25:45.525Z,0
2022-09-16T19:26:48.260Z,0
2022-09-16T19:28:53.644Z,0
2022-09-16T19:30:59.745Z,0
2022-09-16T19:33:06.028Z,0
2022-09-16T19:34:09.024Z,0
2022-09-16T19:36:15.252Z,0
2022-09-16T19:38:22.863Z,0
2022-09-16T19:40:29.951Z,0
2022-09-16T19:41:33.177Z,0
2022-09-16T19:43:39.936Z,0
2022-09-16T19:45:46.384Z,0
2022-09-16T19:47:53.707Z,0
2022-09-16T19:48:56.870Z,0
2022-09-16T19:51:03.723Z,0
2022-09-16T19:53:10.502Z,0
2022-09-16T19:55:17.669Z,0
2022-09-16T19:56:20.453Z,0
2022-09-16T19:58:27.479Z,0
2022-09-16T20:00:58.530Z,0
2022-09-16T20:03:05.686Z,0
2022-09-16T20:05:11.676Z,0
2022-09-16T20:06:14.844Z,0
2022-09-16T20:08:22.519Z,0
2022-09-16T20:10:29.530Z,0
2022-09-16T20:12:36.420Z,0
2022-09-16T20:13:39.851Z,0
2022-09-16T20:15:45.817Z,0
2022-09-16T20:17:53.353Z,0
2022-09-16T20:18:56.490Z,0
2022-09-16T20:19:59.072Z,0
2022-09-16T20:21:02.740Z,0
2022-09-16T20:23:10.026Z,0
2022-09-16T20:24:14.398Z,0
2022-09-16T20:25:25.253Z,0
2022-09-16T20:26:28.049Z,0
2022-09-16T20:28:34.135Z,0
2022-09-16T20:30:39.336Z,0
2022-09-16T20:31:42.959Z,0
2022-09-16T20:33:49.295Z,0
2022-09-16T20:35:55.263Z,0
2022-09-16T20:38:01.045Z,0
2022-09-16T20:39:04.236Z,0
2022-09-16T20:41:12.782Z,0
2022-09-16T20:43:19.037Z,0
2022-09-16T20:45:25.708Z,0
2022-09-16T20:46:28.548Z,0
2022-09-16T20:48:34.282Z,0
2022-09-16T20:50:41.212Z,0
2022-09-16T20:52:47.549Z,0
2022-09-16T20:53:50.255Z,0
2022-09-16T20:55:57.417Z,0
2022-09-16T20:58:03.402Z,0
2022-09-16T20:59:06.137Z,0
2022-09-16T21:00:09.662Z,0
2022-09-16T21:01:13.826Z,0
2022-09-16T21:03:19.953Z,0
2022-09-16T21:05:25.742Z,0
2022-09-16T21:06:29.409Z,0
2022-09-16T21:08:36.417Z,0
2022-09-16T21:10:42.649Z,0
2022-09-16T21:12:50.427Z,0
2022-09-16T21:13:53.493Z,0
2022-09-16T21:15:59.763Z,0
2022-09-16T21:18:05.277Z,0
2022-09-16T21:19:07.433Z,0
2022-09-16T21:20:10.290Z,0
2022-09-16T21:21:13.915Z,0
2022-09-16T21:23:20.424Z,0
2022-09-16T21:25:27.113Z,0
2022-09-16T21:26:30.183Z,0
2022-09-16T21:28:38.326Z,0
2022-09-16T21:30:44.585Z,0
2022-09-16T21:32:50.615Z,0
2022-09-16T21:33:53.509Z,0
2022-09-16T21:35:59.110Z,0
2022-09-16T21:38:05.211Z,0
2022-09-16T21:39:08.566Z,0
2022-09-16T21:40:12.720Z,0
2022-09-16T21:41:15.938Z,0
2022-09-16T21:43:38.660Z,0
2022-09-16T21:45:46.176Z,0
2022-09-16T21:46:50.053Z,0
2022-09-16T21:47:52.786Z,0
2022-09-16T21:48:55.780Z,0
2022-09-16T21:51:03.880Z,0
2022-09-16T21:52:06.604Z,0
2022-09-16T21:53:09.574Z,0
2022-09-16T21:54:14.637Z,0
2022-09-16T21:56:22.201Z,0
2022-09-16T21:58:29.224Z,0
2022-09-16T21:59:33.417Z,0
2022-09-16T22:01:40.485Z,0
2022-09-16T22:03:46.952Z,0
2022-09-16T22:05:53.654Z,0
2022-09-16T22:06:56.457Z,0
2022-09-16T22:09:03.288Z,0
2022-09-16T22:11:10.166Z,0
2022-09-16T22:13:16.212Z,0
2022-09-16T22:14:19.727Z,0
2022-09-16T22:16:28.661Z,0
2022-09-16T22:18:35.511Z,0
2022-09-16T22:20:42.542Z,0
2022-09-16T22:21:45.971Z,0
2022-09-16T22:22:48.231Z,0
2022-09-16T22:23:50.857Z,0
2022-09-16T22:25:56.619Z,0
2022-09-16T22:26:59.779Z,0
2022-09-16T22:28:03.149Z,0
2022-09-16T22:29:06.923Z,0
2022-09-16T22:31:14.517Z,0
2022-09-16T22:32:18.868Z,0
2022-09-16T22:33:21.742Z,0
2022-09-16T22:34:24.880Z,0
2022-09-16T22:36:31.209Z,0
2022-09-16T22:38:37.762Z,0
2022-09-16T22:39:41.250Z,0
2022-09-16T22:41:48.019Z,0
2022-09-16T22:43:54.633Z,0
2022-09-16T22:46:00.801Z,0
2022-09-16T22:47:04.998Z,0
2022-09-16T22:49:11.183Z,0
2022-09-16T22:51:17.662Z,0
2022-09-16T22:53:23.815Z,0
2022-09-16T22:54:27.439Z,0
2022-09-16T22:56:33.911Z,0
2022-09-16T22:58:39.874Z,0
2022-09-16T23:00:46.824Z,0
2022-09-16T23:01:51.097Z,0
2022-09-16T23:04:00.379Z,0
2022-09-16T23:06:05.796Z,0
2022-09-16T23:08:11.548Z,0
2022-09-16T23:09:15.028Z,0
2022-09-16T23:10:18.020Z,0
2022-09-16T23:11:20.907Z,0
2022-09-16T23:13:28.243Z,0
2022-09-16T23:14:31.893Z,0
2022-09-16T23:15:35.261Z,0
2022-09-16T23:16:38.671Z,0
2022-09-16T23:18:45.266Z,0
2022-09-16T23:20:51.574Z,0
2022-09-16T23:21:54.693Z,0
2022-09-16T23:24:00.728Z,0
2022-09-16T23:26:06.737Z,0
2022-09-16T23:28:11.893Z,0
2022-09-16T23:29:14.696Z,0
2022-09-16T23:31:21.535Z,0
2022-09-16T23:33:27.666Z,0
2022-09-16T23:35:35.653Z,0
2022-09-16T23:36:38.952Z,0
2022-09-16T23:38:45.266Z,0
2022-09-16T23:40:51.220Z,0
2022-09-16T23:42:56.092Z,0
2022-09-16T23:43:59.271Z,0
2022-09-16T23:46:05.234Z,0
2022-09-16T23:48:10.553Z,0
2022-09-16T23:50:16.115Z,0
2022-09-16T23:51:19.603Z,0
2022-09-16T23:53:25.717Z,0
2022-09-16T23:55:32.575Z,0
2022-09-16T23:57:37.723Z,0
2022-09-16T23:58:40.546Z,0
